Terminal Aerodrome Forecast
Issued by NWS Blacksburg, VA

Current Version | Previous Version | Graphics & Text | Print | Product List | Glossary On
Versions: 1 2 3 4 5 6 7 8 9 10 11 12 13 14 15 16 17 18 19 20 21 22 23 24 25 26 27 28 29 30 31 32 33 34 35
323
FTUS41 KRNK 051725
TAFBLF
TAF
KBLF 051725Z 0518/0618 32007KT P6SM SCT035
     FM060000 VRB04KT P6SM BKN030
     FM060400 13006KT 6SM -RA OVC035
     FM060900 13009KT 4SM -RA OVC015
     FM061200 13010G17KT 2SM -RA BR OVC007=

USA.gov is the U.S. government's official web portal to all federal, state and local government web resources and services.